createdAt,value
2019-02-27T00:01:17.710Z,41.50
2019-02-27T00:06:27.326Z,45.44
2019-02-27T00:11:34.606Z,52.25
2019-02-27T00:16:41.784Z,44.50
2019-02-27T00:21:46.550Z,49.25
2019-02-27T00:26:55.540Z,48.13
2019-02-27T00:32:04.795Z,50.25
2019-02-27T00:37:09.478Z,50.00
2019-02-27T00:42:19.549Z,51.88
2019-02-27T00:47:25.075Z,60.25
2019-02-27T00:52:32.587Z,62.00
2019-02-27T00:57:36.762Z,60.17
2019-02-27T01:02:43.728Z,69.37
2019-02-27T01:07:53.797Z,67.87
2019-02-27T01:13:01.606Z,65.89
2019-02-27T01:18:08.551Z,68.00
2019-02-27T01:23:15.450Z,72.67
2019-02-27T01:28:25.470Z,68.89
2019-02-27T01:33:30.511Z,73.86
2019-02-27T01:38:37.647Z,74.00
2019-02-27T01:43:44.198Z,72.00
2019-02-27T01:48:53.218Z,74.10
2019-02-27T01:53:56.751Z,70.67
2019-02-27T01:59:03.450Z,74.37
2019-02-27T02:04:08.586Z,78.29
2019-02-27T02:09:29.930Z,75.89
2019-02-27T02:14:39.082Z,79.33
2019-02-27T02:19:54.037Z,77.78
2019-02-27T02:25:12.853Z,74.44
2019-02-27T02:30:41.287Z,75.87
2019-02-27T02:35:50.691Z,73.00
2019-02-27T02:41:14.870Z,75.89
2019-02-27T02:46:24.660Z,73.12
2019-02-27T02:51:48.015Z,75.75
2019-02-27T02:57:00.473Z,73.56
2019-02-27T03:02:13.353Z,73.56
2019-02-27T03:07:22.530Z,75.89
2019-02-27T03:12:41.149Z,76.11
2019-02-27T03:17:54.984Z,75.22
2019-02-27T03:23:15.701Z,75.75
2019-02-27T03:28:28.635Z,71.87
2019-02-27T03:33:47.026Z,76.00
2019-02-27T03:39:02.741Z,76.67
2019-02-27T03:44:20.628Z,83.78
2019-02-27T03:49:29.261Z,78.11
2019-02-27T03:54:39.712Z,79.30
2019-02-27T03:59:58.264Z,73.44
2019-02-27T04:05:09.999Z,78.00
2019-02-27T04:10:17.922Z,80.44
2019-02-27T04:15:27.337Z,78.67
2019-02-27T04:20:36.803Z,76.89
2019-02-27T04:25:43.883Z,77.00
2019-02-27T04:30:52.644Z,73.50
2019-02-27T04:36:02.248Z,74.87
2019-02-27T04:41:10.030Z,74.33
2019-02-27T04:46:21.300Z,75.56
2019-02-27T04:51:26.765Z,71.78
2019-02-27T04:56:34.893Z,71.50
2019-02-27T05:01:39.426Z,74.25
2019-02-27T05:06:49.160Z,76.22
2019-02-27T05:11:57.090Z,75.78
2019-02-27T05:17:06.514Z,74.44
2019-02-27T05:22:15.287Z,74.87
2019-02-27T05:27:25.242Z,76.56
2019-02-27T05:32:30.270Z,78.00
2019-02-27T05:37:39.294Z,77.89
2019-02-27T05:42:50.739Z,88.50
2019-02-27T05:47:59.016Z,97.33
2019-02-27T05:53:07.411Z,92.56
2019-02-27T05:58:15.470Z,90.11
2019-02-27T06:03:23.828Z,93.22
2019-02-27T06:08:35.141Z,97.22
2019-02-27T06:13:44.961Z,92.89
2019-02-27T06:18:48.182Z,98.00
2019-02-27T06:23:58.114Z,94.37
2019-02-27T06:29:08.588Z,80.89
2019-02-27T06:34:19.166Z,94.10
2019-02-27T06:39:28.888Z,81.00
2019-02-27T06:44:39.245Z,85.00
2019-02-27T06:49:41.397Z,76.00
2019-02-27T06:54:52.842Z,81.44
2019-02-27T07:00:04.835Z,78.33
2019-02-27T07:05:16.286Z,77.56
2019-02-27T07:10:22.727Z,79.37
2019-02-27T07:15:27.320Z,74.25
2019-02-27T07:20:37.107Z,77.56
2019-02-27T07:25:46.722Z,71.22
2019-02-27T07:30:51.330Z,66.00
2019-02-27T07:36:03.455Z,70.56
2019-02-27T07:41:08.225Z,69.87
2019-02-27T07:46:22.150Z,70.78
2019-02-27T07:51:27.043Z,74.00
2019-02-27T07:56:30.826Z,71.33
2019-02-27T08:01:43.817Z,71.25
2019-02-27T08:06:48.624Z,74.37
2019-02-27T08:11:52.423Z,71.00
2019-02-27T08:16:58.969Z,67.00
2019-02-27T08:22:06.228Z,67.56
2019-02-27T08:27:14.292Z,57.13
2019-02-27T08:32:22.230Z,60.25
2019-02-27T08:37:25.939Z,59.67
2019-02-27T08:42:36.814Z,66.62
2019-02-27T08:47:43.402Z,63.13
2019-02-27T08:52:51.859Z,55.00
2019-02-27T08:57:59.303Z,60.25
2019-02-27T09:03:05.921Z,68.87
2019-02-27T09:08:10.810Z,81.00
2019-02-27T09:13:19.740Z,69.75
2019-02-27T09:18:26.272Z,67.00
2019-02-27T09:23:32.562Z,71.25
2019-02-27T09:28:44.061Z,68.37
2019-02-27T09:33:47.716Z,70.00
2019-02-27T09:38:57.634Z,63.13
2019-02-27T09:44:07.133Z,61.75
2019-02-27T09:49:15.715Z,66.33
2019-02-27T09:54:18.754Z,69.67
2019-02-27T09:59:28.327Z,68.56
2019-02-27T10:04:32.999Z,74.00
2019-02-27T10:09:41.800Z,66.62
2019-02-27T10:14:50.248Z,63.25
2019-02-27T10:20:01.394Z,65.62
2019-02-27T10:25:08.606Z,64.62
2019-02-27T10:30:17.512Z,64.56
2019-02-27T10:35:23.094Z,67.71
2019-02-27T10:40:31.657Z,65.11
2019-02-27T10:45:39.394Z,62.25
2019-02-27T10:50:46.060Z,60.75
2019-02-27T10:55:56.110Z,56.89
2019-02-27T11:01:05.112Z,52.62
2019-02-27T11:06:13.059Z,60.25
2019-02-27T11:11:17.677Z,59.00
2019-02-27T11:16:22.196Z,53.50
2019-02-27T11:21:26.031Z,52.00
2019-02-27T11:26:33.355Z,55.50
2019-02-27T11:31:37.256Z,52.25
2019-02-27T11:36:41.795Z,42.00
2019-02-27T11:41:50.528Z,50.12
2019-02-27T11:46:58.901Z,54.63
2019-02-27T11:52:07.031Z,41.13
2019-02-27T11:57:13.138Z,38.63
2019-02-27T12:02:28.738Z,47.75
2019-02-27T12:07:32.010Z,45.00
2019-02-27T12:12:35.846Z,25.50
2019-02-27T12:17:39.712Z,39.50
2019-02-27T12:22:48.388Z,36.63
2019-02-27T12:27:53.259Z,38.25
2019-02-27T12:32:59.027Z,37.63
2019-02-27T12:38:08.093Z,37.00
2019-02-27T12:43:18.318Z,37.25
2019-02-27T12:48:26.359Z,38.25
2019-02-27T12:53:35.731Z,45.00
2019-02-27T12:58:45.084Z,42.50
2019-02-27T13:03:54.352Z,40.00
2019-02-27T13:08:58.672Z,48.25
2019-02-27T13:14:07.059Z,36.88
2019-02-27T13:19:12.047Z,47.25
2019-02-27T13:24:17.810Z,52.00
2019-02-27T13:29:25.331Z,45.33
2019-02-27T13:34:29.098Z,36.33
2019-02-27T13:39:37.837Z,44.63
2019-02-27T13:44:43.528Z,40.00
2019-02-27T13:49:50.657Z,34.13
2019-02-27T13:54:53.642Z,33.00
2019-02-27T14:00:03.210Z,44.63
2019-02-27T14:05:09.157Z,39.33
2019-02-27T14:10:17.120Z,35.13
2019-02-27T14:15:28.072Z,54.38
2019-02-27T14:20:34.826Z,46.75
2019-02-27T14:25:42.781Z,43.63
2019-02-27T14:30:52.371Z,51.88
2019-02-27T14:35:59.112Z,45.00
2019-02-27T14:41:05.151Z,50.12
2019-02-27T14:46:11.732Z,48.29
2019-02-27T14:51:16.500Z,46.67
2019-02-27T14:56:21.486Z,48.00
2019-02-27T15:01:26.985Z,48.33
2019-02-27T15:06:35.370Z,44.38
2019-02-27T15:11:39.326Z,45.00
2019-02-27T15:16:49.293Z,39.25
2019-02-27T15:21:56.865Z,38.88
2019-02-27T15:27:06.169Z,44.25
2019-02-27T15:32:12.181Z,40.00
2019-02-27T15:37:21.502Z,49.75
2019-02-27T15:42:27.691Z,34.25
2019-02-27T15:47:34.181Z,41.00
2019-02-27T15:52:40.652Z,39.75
2019-02-27T15:57:52.050Z,47.56
2019-02-27T16:02:54.954Z,40.25
2019-02-27T16:07:59.304Z,52.00
2019-02-27T16:13:09.437Z,40.73
2019-02-27T16:18:17.672Z,51.56
2019-02-27T16:23:24.034Z,46.33
2019-02-27T16:28:32.317Z,51.25
2019-02-27T16:33:41.174Z,46.37
2019-02-27T16:38:50.184Z,46.37
2019-02-27T16:43:54.722Z,46.50
2019-02-27T16:49:00.309Z,51.75
2019-02-27T16:54:07.611Z,53.86
2019-02-27T16:59:14.085Z,54.33
2019-02-27T17:04:23.230Z,54.00
2019-02-27T17:09:31.207Z,59.75
2019-02-27T17:14:36.906Z,60.38
2019-02-27T17:19:45.010Z,60.44
2019-02-27T17:24:55.124Z,60.25
2019-02-27T17:30:01.271Z,63.44
2019-02-27T17:35:11.817Z,62.44
2019-02-27T17:40:20.005Z,64.56
2019-02-27T17:45:28.547Z,63.75
2019-02-27T17:50:37.622Z,64.62
2019-02-27T17:55:42.602Z,66.00
2019-02-27T18:00:51.143Z,67.00
2019-02-27T18:05:59.545Z,69.89
2019-02-27T18:11:12.291Z,69.00
2019-02-27T18:16:19.315Z,70.67
2019-02-27T18:21:33.382Z,71.75
2019-02-27T18:26:37.960Z,69.33
2019-02-27T18:31:44.121Z,70.50
2019-02-27T18:36:52.730Z,77.44
2019-02-27T18:42:02.667Z,73.67
2019-02-27T18:47:13.472Z,68.78
2019-02-27T18:52:21.611Z,64.62
2019-02-27T18:57:29.875Z,65.78
2019-02-27T19:02:38.285Z,67.22
2019-02-27T19:07:42.572Z,70.00
2019-02-27T19:12:49.456Z,68.00
2019-02-27T19:17:57.686Z,68.44
2019-02-27T19:23:05.582Z,71.37
2019-02-27T19:28:09.021Z,75.00
2019-02-27T19:33:19.189Z,75.44
2019-02-27T19:38:23.546Z,78.00
2019-02-27T19:43:32.182Z,82.10
2019-02-27T19:48:36.377Z,86.00
2019-02-27T19:53:44.234Z,78.44
2019-02-27T19:58:52.190Z,86.89
2019-02-27T20:04:02.022Z,91.56
2019-02-27T20:09:06.426Z,90.50
2019-02-27T20:14:15.799Z,98.22
2019-02-27T20:19:22.770Z,81.75
2019-02-27T20:24:35.571Z,85.30
2019-02-27T20:29:42.408Z,93.11
2019-02-27T20:34:47.794Z,98.50
2019-02-27T20:39:59.179Z,93.89
2019-02-27T20:45:11.751Z,97.11
2019-02-27T20:50:34.130Z,92.89
2019-02-27T20:55:34.162Z,96.00
2019-02-27T21:00:38.642Z,109.67
2019-02-27T21:05:45.974Z,104.20
2019-02-27T21:10:55.405Z,103.29
2019-02-27T21:15:56.967Z,113.00
2019-02-27T21:21:08.717Z,109.40
2019-02-27T21:26:12.121Z,116.50
2019-02-27T21:31:27.571Z,116.36
2019-02-27T21:36:37.627Z,121.64
2019-02-27T21:41:46.274Z,118.82
2019-02-27T21:46:54.492Z,111.27
2019-02-27T21:51:58.439Z,119.00
2019-02-27T21:57:04.115Z,111.57
2019-02-27T22:02:14.728Z,99.78
2019-02-27T22:07:32.896Z,100.45
2019-02-27T22:12:37.061Z,109.10
2019-02-27T22:17:40.925Z,115.00
2019-02-27T22:22:44.880Z,114.00
2019-02-27T22:27:58.463Z,104.55
2019-02-27T22:33:05.719Z,96.56
2019-02-27T22:38:16.963Z,103.50
2019-02-27T22:43:21.967Z,91.75
2019-02-27T22:48:32.438Z,87.44
2019-02-27T22:53:40.263Z,79.44
2019-02-27T22:58:45.406Z,76.71
2019-02-27T23:03:54.976Z,67.75
2019-02-27T23:09:07.498Z,80.78
2019-02-27T23:14:12.942Z,78.50
2019-02-27T23:19:21.440Z,83.60
2019-02-27T23:24:29.984Z,88.60
2019-02-27T23:29:39.872Z,87.22
2019-02-27T23:34:49.863Z,88.22
2019-02-27T23:39:59.601Z,81.33
2019-02-27T23:45:10.270Z,81.00
2019-02-27T23:50:17.908Z,77.00
2019-02-27T23:55:24.902Z,76.78
